KSPW/SPW METAR and TAF weather

Enter ICAO airport designator
Station Type Date Time Source
KSPW METAR 2022/12/04 10:53 UTC NOAA

KSPW 041053Z AUTO 24006KT 10SM CLR M09/M13 A3016 RMK AO2 SLP236 T10941133


Station Type Date Time Source
KSPW Decoded METAR 2022/12/04 10:53 UTC NOAA

SPENCER MUNICIPAL AIRPORT, IA, United States (KSPW) 43-10N 95-13W 403M
Dec 04, 2022 - 05:53 AM EST / 2022.12.04 1053 UTC
Wind: from the WSW (240 degrees) at 7 MPH (6 KT):0
Visibility: 10 mile(s):0
Sky conditions: clear
Temperature: 15.1 F (-9.4 C)
Windchill: 5 F (-15 C):1
Dew Point: 8.1 F (-13.3 C)
Relative Humidity: 73%
Pressure (altimeter): 30.16 in. Hg (1021 hPa)
ob: KSPW 041053Z AUTO 24006KT 10SM CLR M09/M13 A3016 RMK AO2 SLP236 T10941133
cycle: 11

Station Type Date Time Source
KSPW TAF UTC NOAA

Error!

Example: see airport list